createdAt,value
2019-06-27T00:01:52.359Z,15.62
2019-06-27T00:04:58.591Z,15.57
2019-06-27T00:08:03.761Z,15.59
2019-06-27T00:11:09.041Z,15.65
2019-06-27T00:14:14.262Z,15.66
2019-06-27T00:17:20.425Z,15.60
2019-06-27T00:20:25.610Z,15.57
2019-06-27T00:23:30.767Z,15.61
2019-06-27T00:26:35.915Z,15.66
2019-06-27T00:29:41.187Z,15.63
2019-06-27T00:32:46.386Z,15.67
2019-06-27T00:35:51.536Z,15.61
2019-06-27T00:38:56.695Z,15.54
2019-06-27T00:42:01.907Z,15.63
2019-06-27T00:45:07.653Z,15.66
2019-06-27T00:48:12.826Z,15.54
2019-06-27T00:51:18.096Z,15.45
2019-06-27T00:54:23.225Z,15.42
2019-06-27T00:57:28.390Z,15.46
2019-06-27T01:00:33.506Z,15.47
2019-06-27T01:03:38.768Z,15.42
2019-06-27T01:06:43.973Z,15.49
2019-06-27T01:09:49.202Z,15.43
2019-06-27T01:12:54.367Z,15.40
2019-06-27T01:15:59.627Z,15.29
2019-06-27T01:19:04.870Z,15.25
2019-06-27T01:22:10.106Z,15.26
2019-06-27T01:25:15.276Z,15.19
2019-06-27T01:28:21.706Z,15.11
2019-06-27T01:31:26.844Z,15.17
2019-06-27T01:34:33.205Z,15.08
2019-06-27T01:37:38.335Z,14.95
2019-06-27T01:40:43.492Z,15.04
2019-06-27T01:43:52.346Z,14.94
2019-06-27T01:46:55.655Z,14.99
2019-06-27T01:50:00.785Z,14.93
2019-06-27T01:53:06.009Z,14.89
2019-06-27T01:56:11.152Z,14.87
2019-06-27T01:59:16.313Z,14.89
2019-06-27T02:02:22.407Z,14.88
2019-06-27T02:05:27.608Z,14.92
2019-06-27T02:08:32.843Z,14.96
2019-06-27T02:11:38.011Z,14.92
2019-06-27T02:14:43.150Z,14.88
2019-06-27T02:17:48.374Z,14.91
2019-06-27T02:20:53.580Z,14.92
2019-06-27T02:23:58.706Z,14.87
2019-06-27T02:27:03.929Z,14.85
2019-06-27T02:30:10.732Z,14.77
2019-06-27T02:33:16.036Z,14.73
2019-06-27T02:36:21.231Z,14.74
2019-06-27T02:39:26.480Z,14.70
2019-06-27T02:42:31.609Z,14.57
2019-06-27T02:45:36.762Z,14.59
2019-06-27T02:48:42.056Z,14.64
2019-06-27T02:51:49.251Z,14.55
2019-06-27T02:54:54.111Z,14.51
2019-06-27T02:57:59.249Z,14.55
2019-06-27T03:01:05.506Z,14.47
2019-06-27T03:04:10.762Z,14.43
2019-06-27T03:07:16.011Z,14.52
2019-06-27T03:10:21.118Z,14.48
2019-06-27T03:13:26.380Z,14.44
2019-06-27T03:16:31.568Z,14.43
2019-06-27T03:19:36.717Z,14.39
2019-06-27T03:22:41.910Z,14.34
2019-06-27T03:25:47.094Z,14.28
2019-06-27T03:28:54.036Z,14.26
2019-06-27T03:31:59.139Z,14.21
2019-06-27T03:35:04.437Z,14.17
2019-06-27T03:38:09.663Z,14.12
2019-06-27T03:41:14.847Z,14.07
2019-06-27T03:44:20.077Z,14.08
2019-06-27T03:47:25.351Z,14.12
2019-06-27T03:50:30.543Z,14.20
2019-06-27T03:53:35.772Z,14.09
2019-06-27T03:56:42.783Z,14.24
2019-06-27T03:59:47.967Z,14.24
2019-06-27T04:02:53.177Z,14.27
2019-06-27T04:05:58.494Z,14.30
2019-06-27T04:09:03.826Z,14.30
2019-06-27T04:12:09.017Z,14.22
2019-06-27T04:15:14.148Z,14.03
2019-06-27T04:18:20.396Z,13.93
2019-06-27T04:21:25.678Z,13.98
2019-06-27T04:24:30.901Z,14.04
2019-06-27T04:27:36.089Z,13.99
2019-06-27T04:30:41.267Z,14.07
2019-06-27T04:33:47.312Z,13.98
2019-06-27T04:36:52.537Z,13.97
2019-06-27T04:39:57.665Z,14.12
2019-06-27T04:43:05.830Z,13.94
2019-06-27T04:46:10.110Z,13.93
2019-06-27T04:49:15.389Z,13.83
2019-06-27T04:52:20.652Z,13.65
2019-06-27T04:55:25.844Z,13.85
2019-06-27T04:58:31.024Z,14.25
2019-06-27T05:01:37.308Z,14.39
2019-06-27T05:04:42.567Z,14.43
2019-06-27T05:07:47.752Z,14.60
2019-06-27T05:10:52.933Z,14.73
2019-06-27T05:13:59.206Z,14.55
2019-06-27T05:17:04.388Z,14.21
2019-06-27T05:20:09.610Z,14.51
2019-06-27T05:23:14.822Z,17.55
2019-06-27T05:26:19.963Z,19.70
2019-06-27T05:29:25.146Z,20.37
2019-06-27T05:32:30.288Z,21.57
2019-06-27T05:35:35.452Z,19.81
2019-06-27T05:38:40.713Z,17.92
2019-06-27T05:41:45.879Z,17.06
2019-06-27T05:44:51.025Z,17.61
2019-06-27T05:47:56.301Z,17.43
2019-06-27T05:51:03.410Z,17.69
2019-06-27T05:54:08.607Z,17.83
2019-06-27T05:57:13.777Z,17.75
2019-06-27T06:00:28.515Z,17.13
2019-06-27T06:03:25.876Z,16.86
2019-06-27T06:06:31.097Z,17.22
2019-06-27T06:09:37.352Z,19.88
2019-06-27T06:12:42.520Z,22.05
2019-06-27T06:15:47.733Z,22.82
2019-06-27T06:18:52.935Z,23.90
2019-06-27T06:21:58.093Z,23.79
2019-06-27T06:25:03.367Z,21.00
2019-06-27T06:28:08.581Z,19.61
2019-06-27T06:31:13.748Z,18.93
2019-06-27T06:34:18.886Z,18.07
2019-06-27T06:37:24.150Z,17.91
2019-06-27T06:40:29.305Z,18.48
2019-06-27T06:43:34.512Z,19.14
2019-06-27T06:46:39.712Z,21.63
2019-06-27T06:49:44.865Z,20.51
2019-06-27T06:52:50.078Z,19.28
2019-06-27T06:55:55.350Z,18.89
2019-06-27T06:59:00.516Z,21.07
2019-06-27T07:02:05.695Z,22.05
2019-06-27T07:05:11.237Z,21.39
2019-06-27T07:08:16.396Z,21.58
2019-06-27T07:11:21.637Z,20.64
2019-06-27T07:14:27.239Z,21.10
2019-06-27T07:17:32.587Z,22.08
2019-06-27T07:20:37.758Z,22.03
2019-06-27T07:23:44.986Z,22.44
2019-06-27T07:26:50.196Z,21.77
2019-06-27T07:29:55.387Z,21.11
2019-06-27T07:33:00.551Z,20.56
2019-06-27T07:36:05.721Z,20.07
2019-06-27T07:39:10.920Z,20.07
2019-06-27T07:42:16.175Z,19.73
2019-06-27T07:45:21.407Z,19.03
2019-06-27T07:48:30.338Z,19.07
2019-06-27T07:51:36.036Z,19.37
2019-06-27T07:54:41.284Z,19.13
2019-06-27T07:57:46.448Z,19.07
2019-06-27T08:00:52.746Z,19.14
2019-06-27T08:03:58.883Z,18.72
2019-06-27T08:07:04.132Z,19.13
2019-06-27T08:10:09.480Z,19.15
2019-06-27T08:13:16.326Z,19.12
2019-06-27T08:16:21.567Z,19.25
2019-06-27T08:19:26.710Z,19.20
2019-06-27T08:22:31.972Z,18.51
2019-06-27T08:25:37.143Z,18.23
2019-06-27T08:28:42.301Z,18.49
2019-06-27T08:31:51.630Z,18.95
2019-06-27T08:34:54.349Z,18.84
2019-06-27T08:37:59.567Z,18.91
2019-06-27T08:41:04.811Z,18.87
2019-06-27T08:44:09.957Z,18.85
2019-06-27T08:47:15.138Z,18.68
2019-06-27T08:50:20.630Z,18.67
2019-06-27T08:53:25.888Z,18.83
2019-06-27T08:56:31.040Z,19.10
2019-06-27T08:59:36.298Z,18.83
2019-06-27T09:02:41.473Z,18.51
2019-06-27T09:05:46.653Z,18.72
2019-06-27T09:08:51.874Z,18.78
2019-06-27T09:11:56.999Z,19.40
2019-06-27T09:15:02.208Z,19.61
2019-06-27T09:18:07.360Z,19.08
2019-06-27T09:21:14.190Z,19.11
2019-06-27T09:24:19.460Z,19.36
2019-06-27T09:27:25.728Z,19.06
2019-06-27T09:30:30.914Z,19.18
2019-06-27T09:33:36.068Z,19.24
2019-06-27T09:36:41.247Z,19.13
2019-06-27T09:39:46.454Z,19.36
2019-06-27T09:42:51.639Z,19.48
2019-06-27T09:45:56.786Z,19.32
2019-06-27T09:49:01.959Z,19.52
2019-06-27T09:52:07.152Z,19.46
2019-06-27T09:55:13.319Z,19.58
2019-06-27T09:58:18.434Z,19.76
2019-06-27T10:01:23.617Z,19.57
2019-06-27T10:04:28.809Z,19.52
2019-06-27T10:07:34.062Z,19.61
2019-06-27T10:10:39.209Z,19.63
2019-06-27T10:13:44.339Z,19.80
2019-06-27T10:16:49.611Z,19.95
2019-06-27T10:19:54.831Z,19.65
2019-06-27T10:23:00.008Z,19.75
2019-06-27T10:26:05.218Z,19.87
2019-06-27T10:29:10.479Z,20.01
2019-06-27T10:32:15.722Z,19.88
2019-06-27T10:35:21.098Z,19.90
2019-06-27T10:38:26.292Z,20.15
2019-06-27T10:41:33.077Z,19.87
2019-06-27T10:44:38.299Z,20.06
2019-06-27T10:47:43.453Z,20.19
2019-06-27T10:50:48.697Z,19.92
2019-06-27T10:53:53.863Z,20.20
2019-06-27T10:56:59.103Z,20.04
2019-06-27T11:00:05.012Z,20.19
2019-06-27T11:03:15.673Z,20.30
2019-06-27T11:06:17.237Z,20.27
2019-06-27T11:09:22.451Z,20.35
2019-06-27T11:12:27.610Z,20.11
2019-06-27T11:15:33.413Z,20.58
2019-06-27T11:18:38.563Z,20.53
2019-06-27T11:21:43.740Z,20.70
2019-06-27T11:24:48.852Z,20.75
2019-06-27T11:27:54.047Z,20.56
2019-06-27T11:30:59.342Z,20.78
2019-06-27T11:34:04.609Z,20.62
2019-06-27T11:37:10.048Z,20.74
2019-06-27T11:40:16.418Z,20.91
2019-06-27T11:43:23.879Z,20.99
2019-06-27T11:46:29.238Z,20.80
2019-06-27T11:49:34.462Z,21.09
2019-06-27T11:52:39.743Z,21.05
2019-06-27T11:55:45.083Z,20.94
2019-06-27T11:58:50.250Z,21.03
2019-06-27T12:01:55.422Z,21.25
2019-06-27T12:05:00.609Z,21.19
2019-06-27T12:08:05.803Z,21.35
2019-06-27T12:11:11.042Z,21.16
2019-06-27T12:14:16.259Z,21.08
2019-06-27T12:17:21.419Z,21.29
2019-06-27T12:20:26.614Z,21.19
2019-06-27T12:23:31.770Z,21.46
2019-06-27T12:26:36.900Z,21.53
2019-06-27T12:29:42.094Z,21.47
2019-06-27T12:32:52.327Z,21.60
2019-06-27T12:35:54.140Z,21.30
2019-06-27T12:38:59.402Z,21.65
2019-06-27T12:42:04.644Z,21.55
2019-06-27T12:45:11.195Z,21.57
2019-06-27T12:48:16.743Z,21.68
2019-06-27T12:51:21.947Z,21.70
2019-06-27T12:54:27.305Z,21.59
2019-06-27T12:57:32.549Z,21.70
2019-06-27T13:00:39.640Z,21.54
2019-06-27T13:03:44.778Z,21.69
2019-06-27T13:06:49.937Z,21.81
2019-06-27T13:09:55.259Z,21.58
2019-06-27T13:13:00.679Z,21.89
2019-06-27T13:16:05.895Z,22.13
2019-06-27T13:19:11.141Z,21.95
2019-06-27T13:22:16.386Z,21.76
2019-06-27T13:25:21.737Z,21.66
2019-06-27T13:28:27.317Z,21.95
2019-06-27T13:31:32.741Z,21.98
2019-06-27T13:34:40.843Z,21.87
2019-06-27T13:37:44.924Z,21.94
2019-06-27T13:40:50.195Z,21.54
2019-06-27T13:43:55.508Z,21.85
2019-06-27T13:47:00.817Z,21.87
2019-06-27T13:50:06.515Z,22.14
2019-06-27T13:53:11.774Z,22.14
2019-06-27T13:56:17.137Z,22.20
2019-06-27T13:59:22.387Z,22.13
2019-06-27T14:02:27.569Z,22.33
2019-06-27T14:05:32.784Z,22.34
2019-06-27T14:08:38.170Z,22.11
2019-06-27T14:11:43.492Z,22.12
2019-06-27T14:14:59.302Z,22.22
2019-06-27T14:17:55.728Z,22.16
2019-06-27T14:21:00.940Z,22.26
2019-06-27T14:24:06.156Z,22.32
2019-06-27T14:27:11.395Z,22.23
2019-06-27T14:30:17.605Z,22.02
2019-06-27T14:33:22.817Z,22.18
2019-06-27T14:36:29.063Z,22.19
2019-06-27T14:39:34.260Z,21.99
2019-06-27T14:42:39.485Z,22.31
2019-06-27T14:45:44.954Z,22.48
2019-06-27T14:48:50.158Z,22.34
2019-06-27T14:51:55.383Z,22.06
2019-06-27T14:55:00.614Z,22.36
2019-06-27T14:58:07.991Z,22.21
2019-06-27T15:01:13.162Z,21.87
2019-06-27T15:04:18.542Z,21.83
2019-06-27T15:07:23.810Z,21.96
2019-06-27T15:10:28.965Z,21.82
2019-06-27T15:13:34.169Z,22.01
2019-06-27T15:16:39.296Z,21.99
2019-06-27T15:19:44.541Z,21.88
2019-06-27T15:22:49.765Z,22.04
2019-06-27T15:25:55.037Z,21.97
2019-06-27T15:29:00.275Z,21.97
2019-06-27T15:32:05.560Z,22.04
2019-06-27T15:35:10.976Z,21.77
2019-06-27T15:38:16.368Z,21.81
2019-06-27T15:41:24.367Z,21.66
2019-06-27T15:44:30.570Z,21.69
2019-06-27T15:47:35.965Z,21.82
2019-06-27T15:50:41.154Z,22.10
2019-06-27T15:53:46.400Z,21.99
2019-06-27T15:56:51.655Z,22.03
2019-06-27T15:59:56.885Z,21.91
2019-06-27T16:03:02.189Z,21.92
2019-06-27T16:06:09.762Z,21.94
2019-06-27T16:09:14.471Z,21.90
2019-06-27T16:12:19.736Z,21.84
2019-06-27T16:15:25.982Z,21.70
2019-06-27T16:18:31.216Z,21.50
2019-06-27T16:21:36.464Z,21.60
2019-06-27T16:24:41.668Z,21.33
2019-06-27T16:27:46.861Z,21.35
2019-06-27T16:30:52.085Z,21.23
2019-06-27T16:33:57.353Z,21.18
2019-06-27T16:37:03.660Z,21.34
2019-06-27T16:40:09.371Z,21.33
2019-06-27T16:43:15.590Z,21.31
2019-06-27T16:46:20.804Z,21.48
2019-06-27T16:49:26.019Z,21.45
2019-06-27T16:52:31.234Z,21.40
2019-06-27T16:55:36.550Z,21.49
2019-06-27T16:58:41.844Z,21.34
2019-06-27T17:01:48.241Z,20.92
2019-06-27T17:04:53.483Z,20.84
2019-06-27T17:07:59.711Z,20.64
2019-06-27T17:11:04.961Z,20.62
2019-06-27T17:14:10.217Z,20.85
2019-06-27T17:17:15.504Z,20.87
2019-06-27T17:20:20.691Z,20.85
2019-06-27T17:23:25.899Z,20.69
2019-06-27T17:26:31.224Z,20.73
2019-06-27T17:29:36.421Z,20.49
2019-06-27T17:32:41.646Z,20.43
2019-06-27T17:35:46.914Z,20.44
2019-06-27T17:38:52.170Z,20.31
2019-06-27T17:41:57.313Z,20.46
2019-06-27T17:45:02.546Z,20.50
2019-06-27T17:48:07.806Z,21.04
2019-06-27T17:51:13.081Z,20.71
2019-06-27T17:54:20.709Z,20.90
2019-06-27T17:57:26.058Z,20.80
2019-06-27T18:00:31.417Z,20.63
2019-06-27T18:03:36.609Z,20.32
2019-06-27T18:06:42.124Z,20.36
2019-06-27T18:09:47.365Z,19.91
2019-06-27T18:12:53.554Z,19.53
2019-06-27T18:15:58.759Z,19.33
2019-06-27T18:19:04.001Z,19.36
2019-06-27T18:22:09.235Z,19.10
2019-06-27T18:25:14.888Z,18.82
2019-06-27T18:28:20.117Z,18.66
2019-06-27T18:31:26.440Z,18.57
2019-06-27T18:34:31.589Z,18.49
2019-06-27T18:37:36.755Z,18.48
2019-06-27T18:40:41.960Z,18.30
2019-06-27T18:43:47.154Z,18.17
2019-06-27T18:46:52.390Z,18.14
2019-06-27T18:49:57.655Z,17.99
2019-06-27T18:53:02.964Z,18.05
2019-06-27T18:56:08.164Z,17.83
2019-06-27T18:59:13.492Z,17.77
2019-06-27T19:02:19.742Z,17.64
2019-06-27T19:05:25.036Z,17.62
2019-06-27T19:08:30.381Z,17.59
2019-06-27T19:11:35.615Z,17.56
2019-06-27T19:14:42.538Z,17.32
2019-06-27T19:17:49.135Z,17.24
2019-06-27T19:20:54.556Z,17.13
2019-06-27T19:24:05.263Z,16.96
2019-06-27T19:27:10.561Z,17.03
2019-06-27T19:30:16.064Z,16.66
2019-06-27T19:33:21.445Z,16.52
2019-06-27T19:36:26.646Z,16.44
2019-06-27T19:39:31.927Z,16.32
2019-06-27T19:42:37.159Z,16.30
2019-06-27T19:45:42.350Z,16.27
2019-06-27T19:48:47.639Z,16.10
2019-06-27T19:51:52.895Z,15.95
2019-06-27T19:54:58.173Z,15.89
2019-06-27T19:58:08.345Z,15.70
2019-06-27T20:01:10.220Z,15.57
2019-06-27T20:04:16.599Z,15.45
2019-06-27T20:07:21.849Z,15.46
2019-06-27T20:10:27.165Z,15.40
2019-06-27T20:13:32.626Z,15.34
2019-06-27T20:16:45.401Z,15.23
2019-06-27T20:19:50.681Z,15.15
2019-06-27T20:22:55.904Z,15.08
2019-06-27T20:26:03.778Z,15.07
2019-06-27T20:29:08.049Z,14.89
2019-06-27T20:32:13.196Z,14.84
2019-06-27T20:35:18.365Z,14.77
2019-06-27T20:38:34.318Z,14.59
2019-06-27T20:41:31.992Z,14.57
2019-06-27T20:44:37.185Z,14.57
2019-06-27T20:47:42.427Z,14.51
2019-06-27T20:50:47.665Z,14.47
2019-06-27T20:53:52.902Z,14.29
2019-06-27T20:56:58.090Z,14.29
2019-06-27T21:00:03.358Z,14.13
2019-06-27T21:03:08.731Z,14.21
2019-06-27T21:06:13.910Z,14.24
2019-06-27T21:09:19.294Z,14.15
2019-06-27T21:12:24.520Z,14.13
2019-06-27T21:15:29.904Z,14.11
2019-06-27T21:18:36.115Z,14.17
2019-06-27T21:21:42.747Z,14.07
2019-06-27T21:24:47.932Z,13.93
2019-06-27T21:27:53.152Z,13.92
2019-06-27T21:30:58.336Z,13.68
2019-06-27T21:34:03.639Z,13.59
2019-06-27T21:37:09.658Z,13.52
2019-06-27T21:40:15.926Z,13.50
2019-06-27T21:43:21.189Z,13.53
2019-06-27T21:46:26.577Z,13.48
2019-06-27T21:49:32.907Z,13.39
2019-06-27T21:52:38.167Z,13.37
2019-06-27T21:55:43.368Z,13.25
2019-06-27T21:58:48.556Z,13.25
2019-06-27T22:01:53.766Z,13.38
2019-06-27T22:04:58.902Z,13.34
2019-06-27T22:08:04.309Z,13.35
2019-06-27T22:11:09.602Z,13.43
2019-06-27T22:14:14.841Z,13.59
2019-06-27T22:17:20.033Z,13.64
2019-06-27T22:20:25.463Z,13.78
2019-06-27T22:23:30.687Z,13.80
2019-06-27T22:26:35.880Z,13.89
2019-06-27T22:29:41.992Z,13.95
2019-06-27T22:32:47.226Z,13.98
2019-06-27T22:35:52.431Z,14.03
2019-06-27T22:39:15.089Z,14.03
2019-06-27T22:42:38.112Z,14.01
2019-06-27T22:46:01.056Z,14.13
2019-06-27T22:49:05.342Z,14.30
2019-06-27T22:52:28.063Z,14.18
2019-06-27T22:55:33.431Z,14.22
2019-06-27T22:58:38.626Z,14.17
2019-06-27T23:01:43.807Z,14.15
2019-06-27T23:04:48.986Z,14.18
2019-06-27T23:07:54.176Z,14.10
2019-06-27T23:10:59.303Z,14.15
2019-06-27T23:14:04.490Z,14.44
2019-06-27T23:17:09.610Z,14.29
2019-06-27T23:20:15.625Z,14.23
2019-06-27T23:23:20.821Z,14.18
2019-06-27T23:26:26.047Z,14.17
2019-06-27T23:29:31.220Z,14.20
2019-06-27T23:32:36.488Z,14.07
2019-06-27T23:35:41.720Z,13.97
2019-06-27T23:38:46.900Z,13.97
2019-06-27T23:41:52.106Z,14.15
2019-06-27T23:44:57.275Z,14.01
2019-06-27T23:48:02.461Z,14.06
2019-06-27T23:51:07.706Z,14.12
2019-06-27T23:54:12.881Z,13.93
2019-06-27T23:57:18.032Z,13.96
